sensor_id;sensor_type;location;lat;lon;timestamp;P1;durP1;ratioP1;P2;durP2;ratioP2
2884;SDS011;54691;48.262;11.586;2023-05-25T00:01:03;15.72;;;3.12;;
2884;SDS011;54691;48.262;11.586;2023-05-25T00:08:03;5.70;;;2.37;;
2884;SDS011;54691;48.262;11.586;2023-05-25T00:15:00;13.58;;;3.00;;
2884;SDS011;54691;48.262;11.586;2023-05-25T00:21:57;10.00;;;2.55;;
2884;SDS011;54691;48.262;11.586;2023-05-25T00:28:56;18.37;;;3.40;;
2884;SDS011;54691;48.262;11.586;2023-05-25T00:35:55;15.38;;;2.75;;
2884;SDS011;54691;48.262;11.586;2023-05-25T00:42:53;8.38;;;2.45;;
2884;SDS011;54691;48.262;11.586;2023-05-25T00:49:50;23.70;;;4.05;;
2884;SDS011;54691;48.262;11.586;2023-05-25T00:56:51;12.80;;;2.52;;
2884;SDS011;54691;48.262;11.586;2023-05-25T01:03:50;22.25;;;3.80;;
2884;SDS011;54691;48.262;11.586;2023-05-25T01:10:50;16.02;;;3.20;;
2884;SDS011;54691;48.262;11.586;2023-05-25T01:17:49;14.65;;;2.40;;
2884;SDS011;54691;48.262;11.586;2023-05-25T01:24:50;17.17;;;2.62;;
2884;SDS011;54691;48.262;11.586;2023-05-25T01:31:52;9.55;;;2.45;;
2884;SDS011;54691;48.262;11.586;2023-05-25T01:38:47;10.18;;;3.25;;
2884;SDS011;54691;48.262;11.586;2023-05-25T01:45:46;17.55;;;3.90;;
2884;SDS011;54691;48.262;11.586;2023-05-25T01:52:53;23.73;;;3.77;;
2884;SDS011;54691;48.262;11.586;2023-05-25T01:59:46;20.25;;;2.75;;
2884;SDS011;54691;48.262;11.586;2023-05-25T02:06:46;13.55;;;3.17;;
2884;SDS011;54691;48.262;11.586;2023-05-25T02:13:42;14.95;;;3.62;;
2884;SDS011;54691;48.262;11.586;2023-05-25T02:20:39;7.12;;;2.60;;
2884;SDS011;54691;48.262;11.586;2023-05-25T02:27:38;16.87;;;3.15;;
2884;SDS011;54691;48.262;11.586;2023-05-25T02:34:35;18.30;;;3.60;;
2884;SDS011;54691;48.262;11.586;2023-05-25T02:41:32;18.07;;;4.17;;
2884;SDS011;54691;48.262;11.586;2023-05-25T02:48:33;14.18;;;4.30;;
2884;SDS011;54691;48.262;11.586;2023-05-25T02:55:31;11.38;;;4.37;;
2884;SDS011;54691;48.262;11.586;2023-05-25T03:02:28;19.67;;;4.62;;
2884;SDS011;54691;48.262;11.586;2023-05-25T03:09:25;32.00;;;5.33;;
2884;SDS011;54691;48.262;11.586;2023-05-25T03:16:22;6.78;;;3.83;;
2884;SDS011;54691;48.262;11.586;2023-05-25T03:23:20;20.92;;;4.50;;
2884;SDS011;54691;48.262;11.586;2023-05-25T03:30:17;16.07;;;5.15;;
2884;SDS011;54691;48.262;11.586;2023-05-25T03:37:15;12.68;;;6.37;;
2884;SDS011;54691;48.262;11.586;2023-05-25T03:44:12;14.07;;;5.25;;
2884;SDS011;54691;48.262;11.586;2023-05-25T03:51:09;13.78;;;6.55;;
2884;SDS011;54691;48.262;11.586;2023-05-25T03:58:06;17.77;;;7.22;;
2884;SDS011;54691;48.262;11.586;2023-05-25T04:05:05;18.80;;;6.97;;
2884;SDS011;54691;48.262;11.586;2023-05-25T04:12:03;14.13;;;6.62;;
2884;SDS011;54691;48.262;11.586;2023-05-25T04:19:01;16.00;;;7.20;;
2884;SDS011;54691;48.262;11.586;2023-05-25T04:32:55;17.45;;;6.95;;
2884;SDS011;54691;48.262;11.586;2023-05-25T04:39:54;18.80;;;7.10;;
2884;SDS011;54691;48.262;11.586;2023-05-25T04:46:52;12.37;;;5.97;;
2884;SDS011;54691;48.262;11.586;2023-05-25T04:53:50;10.70;;;4.75;;
2884;SDS011;54691;48.262;11.586;2023-05-25T05:00:49;20.37;;;6.03;;
2884;SDS011;54691;48.262;11.586;2023-05-25T05:07:46;18.90;;;5.05;;
2884;SDS011;54691;48.262;11.586;2023-05-25T05:14:45;11.55;;;4.85;;
2884;SDS011;54691;48.262;11.586;2023-05-25T05:21:42;16.37;;;4.50;;
2884;SDS011;54691;48.262;11.586;2023-05-25T05:28:39;10.88;;;4.12;;
2884;SDS011;54691;48.262;11.586;2023-05-25T05:35:36;7.12;;;3.50;;
2884;SDS011;54691;48.262;11.586;2023-05-25T05:42:33;16.60;;;6.08;;
2884;SDS011;54691;48.262;11.586;2023-05-25T05:49:30;14.73;;;4.78;;
2884;SDS011;54691;48.262;11.586;2023-05-25T05:56:29;14.00;;;4.60;;
2884;SDS011;54691;48.262;11.586;2023-05-25T06:03:26;11.95;;;4.17;;
2884;SDS011;54691;48.262;11.586;2023-05-25T06:10:23;20.23;;;4.95;;
2884;SDS011;54691;48.262;11.586;2023-05-25T06:17:21;10.88;;;4.45;;
2884;SDS011;54691;48.262;11.586;2023-05-25T06:24:19;9.38;;;4.15;;
2884;SDS011;54691;48.262;11.586;2023-05-25T06:31:16;15.08;;;4.55;;
2884;SDS011;54691;48.262;11.586;2023-05-25T06:38:13;10.98;;;4.05;;
2884;SDS011;54691;48.262;11.586;2023-05-25T06:45:10;16.48;;;5.97;;
2884;SDS011;54691;48.262;11.586;2023-05-25T06:52:07;9.78;;;4.17;;
2884;SDS011;54691;48.262;11.586;2023-05-25T06:59:04;14.13;;;4.67;;
2884;SDS011;54691;48.262;11.586;2023-05-25T07:06:03;11.63;;;4.58;;
2884;SDS011;54691;48.262;11.586;2023-05-25T07:13:00;12.18;;;5.08;;
2884;SDS011;54691;48.262;11.586;2023-05-25T07:19:58;15.72;;;5.15;;
2884;SDS011;54691;48.262;11.586;2023-05-25T07:26:55;11.12;;;5.55;;
2884;SDS011;54691;48.262;11.586;2023-05-25T07:33:52;9.98;;;4.58;;
2884;SDS011;54691;48.262;11.586;2023-05-25T07:40:50;20.75;;;6.17;;
2884;SDS011;54691;48.262;11.586;2023-05-25T07:47:47;7.58;;;4.80;;
2884;SDS011;54691;48.262;11.586;2023-05-25T07:54:44;8.63;;;4.50;;
2884;SDS011;54691;48.262;11.586;2023-05-25T08:01:41;11.93;;;5.55;;
2884;SDS011;54691;48.262;11.586;2023-05-25T08:08:39;23.30;;;5.22;;
2884;SDS011;54691;48.262;11.586;2023-05-25T08:15:36;15.95;;;5.37;;
2884;SDS011;54691;48.262;11.586;2023-05-25T08:22:33;10.32;;;4.87;;
2884;SDS011;54691;48.262;11.586;2023-05-25T08:29:31;12.15;;;4.62;;
2884;SDS011;54691;48.262;11.586;2023-05-25T08:36:28;11.93;;;5.37;;
2884;SDS011;54691;48.262;11.586;2023-05-25T08:43:26;9.50;;;4.00;;
2884;SDS011;54691;48.262;11.586;2023-05-25T08:50:24;11.80;;;4.15;;
2884;SDS011;54691;48.262;11.586;2023-05-25T08:57:22;12.37;;;4.25;;
2884;SDS011;54691;48.262;11.586;2023-05-25T09:04:21;6.50;;;4.10;;
2884;SDS011;54691;48.262;11.586;2023-05-25T09:11:23;16.37;;;5.15;;
2884;SDS011;54691;48.262;11.586;2023-05-25T09:18:19;10.58;;;4.83;;
2884;SDS011;54691;48.262;11.586;2023-05-25T09:25:18;9.85;;;4.58;;
2884;SDS011;54691;48.262;11.586;2023-05-25T09:32:16;15.65;;;4.50;;
2884;SDS011;54691;48.262;11.586;2023-05-25T09:39:13;13.55;;;4.30;;
2884;SDS011;54691;48.262;11.586;2023-05-25T09:46:10;16.00;;;4.33;;
2884;SDS011;54691;48.262;11.586;2023-05-25T09:53:07;8.28;;;4.40;;
2884;SDS011;54691;48.262;11.586;2023-05-25T09:56:36;8.83;;;3.98;;
2884;SDS011;54691;48.262;11.586;2023-05-25T10:03:35;15.03;;;4.53;;
2884;SDS011;54691;48.262;11.586;2023-05-25T10:10:32;9.95;;;4.37;;
2884;SDS011;54691;48.262;11.586;2023-05-25T10:17:30;12.10;;;4.80;;
2884;SDS011;54691;48.262;11.586;2023-05-25T10:24:29;8.55;;;4.12;;
2884;SDS011;54691;48.262;11.586;2023-05-25T10:31:27;6.80;;;4.05;;
2884;SDS011;54691;48.262;11.586;2023-05-25T10:38:25;8.98;;;4.03;;
2884;SDS011;54691;48.262;11.586;2023-05-25T10:45:23;7.03;;;3.87;;
2884;SDS011;54691;48.262;11.586;2023-05-25T10:52:29;12.50;;;3.92;;
2884;SDS011;54691;48.262;11.586;2023-05-25T10:56:00;20.70;;;4.60;;
2884;SDS011;54691;48.262;11.586;2023-05-25T11:02:58;8.85;;;3.83;;
2884;SDS011;54691;48.262;11.586;2023-05-25T11:09:57;7.20;;;3.45;;
2884;SDS011;54691;48.262;11.586;2023-05-25T11:17:03;10.78;;;3.60;;
2884;SDS011;54691;48.262;11.586;2023-05-25T11:20:34;8.20;;;4.57;;
2884;SDS011;54691;48.262;11.586;2023-05-25T11:27:40;14.47;;;5.47;;
2884;SDS011;54691;48.262;11.586;2023-05-25T11:34:34;7.42;;;4.00;;
2884;SDS011;54691;48.262;11.586;2023-05-25T11:41:38;12.65;;;4.92;;
2884;SDS011;54691;48.262;11.586;2023-05-25T11:48:31;8.13;;;3.87;;
2884;SDS011;54691;48.262;11.586;2023-05-25T11:55:28;13.38;;;5.60;;
2884;SDS011;54691;48.262;11.586;2023-05-25T12:02:25;8.88;;;4.60;;
2884;SDS011;54691;48.262;11.586;2023-05-25T12:09:23;12.88;;;5.53;;
2884;SDS011;54691;48.262;11.586;2023-05-25T12:16:22;17.50;;;6.53;;
2884;SDS011;54691;48.262;11.586;2023-05-25T12:23:19;16.73;;;6.03;;
2884;SDS011;54691;48.262;11.586;2023-05-25T12:30:16;18.12;;;6.08;;
2884;SDS011;54691;48.262;11.586;2023-05-25T12:37:17;13.60;;;5.35;;
2884;SDS011;54691;48.262;11.586;2023-05-25T12:44:25;10.93;;;4.97;;
2884;SDS011;54691;48.262;11.586;2023-05-25T12:47:54;9.25;;;4.90;;
2884;SDS011;54691;48.262;11.586;2023-05-25T12:54:52;14.95;;;5.45;;
2884;SDS011;54691;48.262;11.586;2023-05-25T13:01:49;10.35;;;5.60;;
2884;SDS011;54691;48.262;11.586;2023-05-25T13:08:46;8.38;;;4.70;;
2884;SDS011;54691;48.262;11.586;2023-05-25T13:15:45;23.62;;;5.95;;
2884;SDS011;54691;48.262;11.586;2023-05-25T13:22:42;13.13;;;5.22;;
2884;SDS011;54691;48.262;11.586;2023-05-25T13:29:40;8.90;;;4.75;;
2884;SDS011;54691;48.262;11.586;2023-05-25T13:36:37;11.30;;;4.80;;
2884;SDS011;54691;48.262;11.586;2023-05-25T13:43:34;11.65;;;4.85;;
2884;SDS011;54691;48.262;11.586;2023-05-25T13:50:31;11.35;;;4.80;;
2884;SDS011;54691;48.262;11.586;2023-05-25T13:57:28;15.88;;;4.40;;
2884;SDS011;54691;48.262;11.586;2023-05-25T14:04:25;7.55;;;3.87;;
2884;SDS011;54691;48.262;11.586;2023-05-25T14:11:26;25.20;;;5.72;;
2884;SDS011;54691;48.262;11.586;2023-05-25T14:21:59;16.87;;;5.15;;
2884;SDS011;54691;48.262;11.586;2023-05-25T14:28:56;9.83;;;3.60;;
2884;SDS011;54691;48.262;11.586;2023-05-25T14:35:53;11.18;;;3.27;;
2884;SDS011;54691;48.262;11.586;2023-05-25T14:42:52;17.37;;;4.72;;
2884;SDS011;54691;48.262;11.586;2023-05-25T14:49:50;4.30;;;2.75;;
2884;SDS011;54691;48.262;11.586;2023-05-25T14:56:56;8.03;;;4.03;;
2884;SDS011;54691;48.262;11.586;2023-05-25T15:03:49;6.17;;;3.42;;
2884;SDS011;54691;48.262;11.586;2023-05-25T15:10:46;9.38;;;3.40;;
2884;SDS011;54691;48.262;11.586;2023-05-25T15:14:23;6.55;;;3.05;;
2884;SDS011;54691;48.262;11.586;2023-05-25T15:17:59;7.55;;;3.45;;
2884;SDS011;54691;48.262;11.586;2023-05-25T15:21:36;5.70;;;2.70;;
2884;SDS011;54691;48.262;11.586;2023-05-25T15:28:34;6.97;;;3.12;;
2884;SDS011;54691;48.262;11.586;2023-05-25T15:35:32;4.67;;;2.47;;
2884;SDS011;54691;48.262;11.586;2023-05-25T15:42:32;6.15;;;2.70;;
2884;SDS011;54691;48.262;11.586;2023-05-25T15:49:31;5.53;;;3.00;;
2884;SDS011;54691;48.262;11.586;2023-05-25T15:56:30;9.63;;;3.72;;
2884;SDS011;54691;48.262;11.586;2023-05-25T16:03:27;8.13;;;4.08;;
2884;SDS011;54691;48.262;11.586;2023-05-25T16:10:25;4.35;;;2.37;;
2884;SDS011;54691;48.262;11.586;2023-05-25T16:17:24;4.92;;;2.62;;
2884;SDS011;54691;48.262;11.586;2023-05-25T16:24:27;5.25;;;2.45;;
2884;SDS011;54691;48.262;11.586;2023-05-25T16:31:26;9.63;;;4.17;;
2884;SDS011;54691;48.262;11.586;2023-05-25T16:38:23;8.98;;;4.05;;
2884;SDS011;54691;48.262;11.586;2023-05-25T16:45:22;6.22;;;3.08;;
2884;SDS011;54691;48.262;11.586;2023-05-25T16:52:19;5.45;;;2.37;;
2884;SDS011;54691;48.262;11.586;2023-05-25T16:59:16;4.87;;;2.33;;
2884;SDS011;54691;48.262;11.586;2023-05-25T17:06:13;4.53;;;2.20;;
2884;SDS011;54691;48.262;11.586;2023-05-25T17:13:10;5.85;;;2.80;;
2884;SDS011;54691;48.262;11.586;2023-05-25T17:20:07;11.78;;;4.40;;
2884;SDS011;54691;48.262;11.586;2023-05-25T17:27:05;9.90;;;3.77;;
2884;SDS011;54691;48.262;11.586;2023-05-25T17:34:02;19.15;;;2.95;;
2884;SDS011;54691;48.262;11.586;2023-05-25T17:40:59;5.45;;;2.47;;
2884;SDS011;54691;48.262;11.586;2023-05-25T17:47:56;10.53;;;3.30;;
2884;SDS011;54691;48.262;11.586;2023-05-25T17:54:53;7.50;;;2.83;;
2884;SDS011;54691;48.262;11.586;2023-05-25T18:01:50;7.75;;;2.58;;
2884;SDS011;54691;48.262;11.586;2023-05-25T18:08:49;6.92;;;2.40;;
2884;SDS011;54691;48.262;11.586;2023-05-25T18:15:46;7.87;;;2.95;;
2884;SDS011;54691;48.262;11.586;2023-05-25T18:22:47;12.68;;;3.08;;
2884;SDS011;54691;48.262;11.586;2023-05-25T18:29:44;8.45;;;2.33;;
2884;SDS011;54691;48.262;11.586;2023-05-25T18:36:42;6.50;;;2.37;;
2884;SDS011;54691;48.262;11.586;2023-05-25T18:43:40;7.37;;;2.35;;
2884;SDS011;54691;48.262;11.586;2023-05-25T18:50:46;7.28;;;2.62;;
2884;SDS011;54691;48.262;11.586;2023-05-25T18:57:39;5.75;;;2.30;;
2884;SDS011;54691;48.262;11.586;2023-05-25T19:04:36;9.15;;;3.47;;
2884;SDS011;54691;48.262;11.586;2023-05-25T19:11:33;6.10;;;2.70;;
2884;SDS011;54691;48.262;11.586;2023-05-25T19:18:30;11.25;;;3.50;;
2884;SDS011;54691;48.262;11.586;2023-05-25T19:25:27;9.18;;;3.77;;
2884;SDS011;54691;48.262;11.586;2023-05-25T19:32:25;9.95;;;3.65;;
2884;SDS011;54691;48.262;11.586;2023-05-25T19:39:21;11.12;;;4.33;;
2884;SDS011;54691;48.262;11.586;2023-05-25T19:46:18;13.93;;;3.75;;
2884;SDS011;54691;48.262;11.586;2023-05-25T19:53:15;17.75;;;4.40;;
2884;SDS011;54691;48.262;11.586;2023-05-25T20:00:13;11.12;;;4.60;;
2884;SDS011;54691;48.262;11.586;2023-05-25T20:07:11;14.15;;;4.20;;
2884;SDS011;54691;48.262;11.586;2023-05-25T20:14:09;21.87;;;5.25;;
2884;SDS011;54691;48.262;11.586;2023-05-25T20:21:06;21.33;;;4.95;;
2884;SDS011;54691;48.262;11.586;2023-05-25T20:28:03;11.28;;;3.98;;
2884;SDS011;54691;48.262;11.586;2023-05-25T20:35:00;7.92;;;4.05;;
2884;SDS011;54691;48.262;11.586;2023-05-25T20:41:57;9.63;;;4.28;;
2884;SDS011;54691;48.262;11.586;2023-05-25T20:48:56;18.95;;;5.80;;
2884;SDS011;54691;48.262;11.586;2023-05-25T20:55:53;12.13;;;4.85;;
2884;SDS011;54691;48.262;11.586;2023-05-25T21:02:50;16.20;;;5.37;;
2884;SDS011;54691;48.262;11.586;2023-05-25T21:09:47;12.00;;;4.37;;
2884;SDS011;54691;48.262;11.586;2023-05-25T21:16:46;14.33;;;5.03;;
2884;SDS011;54691;48.262;11.586;2023-05-25T21:23:46;13.03;;;5.08;;
2884;SDS011;54691;48.262;11.586;2023-05-25T21:30:44;34.63;;;6.72;;
2884;SDS011;54691;48.262;11.586;2023-05-25T21:37:41;9.00;;;4.90;;
2884;SDS011;54691;48.262;11.586;2023-05-25T21:44:38;11.43;;;4.75;;
2884;SDS011;54691;48.262;11.586;2023-05-25T21:51:35;12.82;;;5.25;;
2884;SDS011;54691;48.262;11.586;2023-05-25T21:58:32;11.83;;;5.15;;
2884;SDS011;54691;48.262;11.586;2023-05-25T22:05:29;11.08;;;4.80;;
2884;SDS011;54691;48.262;11.586;2023-05-25T22:12:28;10.30;;;4.75;;
2884;SDS011;54691;48.262;11.586;2023-05-25T22:19:25;17.52;;;5.87;;
2884;SDS011;54691;48.262;11.586;2023-05-25T22:26:26;12.45;;;5.05;;
2884;SDS011;54691;48.262;11.586;2023-05-25T22:33:24;12.93;;;5.05;;
2884;SDS011;54691;48.262;11.586;2023-05-25T22:40:21;21.55;;;7.17;;
2884;SDS011;54691;48.262;11.586;2023-05-25T22:47:18;15.85;;;5.30;;
2884;SDS011;54691;48.262;11.586;2023-05-25T22:54:26;15.23;;;5.22;;
2884;SDS011;54691;48.262;11.586;2023-05-25T22:57:50;11.70;;;6.50;;
2884;SDS011;54691;48.262;11.586;2023-05-25T23:04:47;15.40;;;5.85;;
2884;SDS011;54691;48.262;11.586;2023-05-25T23:11:44;10.82;;;5.25;;
2884;SDS011;54691;48.262;11.586;2023-05-25T23:18:41;10.63;;;5.90;;
2884;SDS011;54691;48.262;11.586;2023-05-25T23:25:38;13.03;;;5.70;;
2884;SDS011;54691;48.262;11.586;2023-05-25T23:32:38;13.18;;;5.60;;
2884;SDS011;54691;48.262;11.586;2023-05-25T23:39:35;11.08;;;5.25;;
2884;SDS011;54691;48.262;11.586;2023-05-25T23:46:38;11.45;;;5.47;;
2884;SDS011;54691;48.262;11.586;2023-05-25T23:53:33;16.75;;;6.05;;
